sensor_id;sensor_type;location;lat;lon;timestamp;P1;P2;P0
68341;PMS7003;55668;52.310;21.066;2022-08-19T00:43:37;16;16;
68341;PMS7003;55668;52.310;21.066;2022-08-19T00:58:38;18;18;
68341;PMS7003;55668;52.310;21.066;2022-08-19T01:17:12;17;16;
68341;PMS7003;55668;52.310;21.066;2022-08-19T01:32:43;18;18;
68341;PMS7003;55668;52.310;21.066;2022-08-19T01:44:59;17;17;
68341;PMS7003;55668;52.310;21.066;2022-08-19T02:31:01;16;16;
68341;PMS7003;55668;52.310;21.066;2022-08-19T03:01:52;18;17;
68341;PMS7003;55668;52.310;21.066;2022-08-19T03:21:43;17;17;
68341;PMS7003;55668;52.310;21.066;2022-08-19T03:32:23;17;17;
68341;PMS7003;55668;52.310;21.066;2022-08-19T03:51:58;17;17;
68341;PMS7003;55668;52.310;21.066;2022-08-19T04:04:04;18;17;
68341;PMS7003;55668;52.310;21.066;2022-08-19T04:19:17;15;15;
68341;PMS7003;55668;52.310;21.066;2022-08-19T04:34:21;17;17;
68341;PMS7003;55668;52.310;21.066;2022-08-19T04:49:39;15;15;
68341;PMS7003;55668;52.310;21.066;2022-08-19T05:05:50;15;15;
68341;PMS7003;55668;52.310;21.066;2022-08-19T05:20:50;18;18;
68341;PMS7003;55668;52.310;21.066;2022-08-19T05:35:27;17;16;
68341;PMS7003;55668;52.310;21.066;2022-08-19T05:56:23;17;17;
68341;PMS7003;55668;52.310;21.066;2022-08-19T06:08:40;18;18;
68341;PMS7003;55668;52.310;21.066;2022-08-19T06:22:54;16;16;
68341;PMS7003;55668;52.310;21.066;2022-08-19T06:38:35;18;18;
68341;PMS7003;55668;52.310;21.066;2022-08-19T06:53:06;16;16;
68341;PMS7003;55668;52.310;21.066;2022-08-19T07:07:26;14;14;
68341;PMS7003;55668;52.310;21.066;2022-08-19T07:23:09;17;17;
68341;PMS7003;55668;52.310;21.066;2022-08-19T07:32:09;16;16;
68341;PMS7003;55668;52.310;21.066;2022-08-19T07:48:27;13;13;
68341;PMS7003;55668;52.310;21.066;2022-08-19T08:08:49;15;15;
68341;PMS7003;55668;52.310;21.066;2022-08-19T08:17:55;15;15;
68341;PMS7003;55668;52.310;21.066;2022-08-19T08:32:24;15;15;
68341;PMS7003;55668;52.310;21.066;2022-08-19T08:48:17;16;16;
68341;PMS7003;55668;52.310;21.066;2022-08-19T09:03:18;16;16;
68341;PMS7003;55668;52.310;21.066;2022-08-19T09:18:09;14;14;
68341;PMS7003;55668;52.310;21.066;2022-08-19T10:04:24;17;17;
68341;PMS7003;55668;52.310;21.066;2022-08-19T10:21:33;18;18;
68341;PMS7003;55668;52.310;21.066;2022-08-19T10:35:41;18;17;
68341;PMS7003;55668;52.310;21.066;2022-08-19T11:05:56;16;16;
68341;PMS7003;55668;52.310;21.066;2022-08-19T11:21:17;17;17;
68341;PMS7003;55668;52.310;21.066;2022-08-19T11:37:33;17;17;
68341;PMS7003;55668;52.310;21.066;2022-08-19T12:07:55;16;16;
68341;PMS7003;55668;52.310;21.066;2022-08-19T12:23:39;17;17;
68341;PMS7003;55668;52.310;21.066;2022-08-19T12:55:05;15;15;
68341;PMS7003;55668;52.310;21.066;2022-08-19T13:24:51;15;15;
68341;PMS7003;55668;52.310;21.066;2022-08-19T13:42:50;14;13;
68341;PMS7003;55668;52.310;21.066;2022-08-19T14:13:18;16;14;
68341;PMS7003;55668;52.310;21.066;2022-08-19T14:56:27;14;14;
68341;PMS7003;55668;52.310;21.066;2022-08-19T15:27:10;12;12;
68341;PMS7003;55668;52.310;21.066;2022-08-19T16:00:14;12;12;
68341;PMS7003;55668;52.310;21.066;2022-08-19T16:13:23;12;12;
68341;PMS7003;55668;52.310;21.066;2022-08-19T16:29:44;12;12;
68341;PMS7003;55668;52.310;21.066;2022-08-19T16:43:50;12;12;
68341;PMS7003;55668;52.310;21.066;2022-08-19T16:59:52;13;13;
68341;PMS7003;55668;52.310;21.066;2022-08-19T17:16:47;11;11;
68341;PMS7003;55668;52.310;21.066;2022-08-19T17:30:12;8;8;
68341;PMS7003;55668;52.310;21.066;2022-08-19T17:46:46;9;9;
68341;PMS7003;55668;52.310;21.066;2022-08-19T18:03:48;10;10;
68341;PMS7003;55668;52.310;21.066;2022-08-19T18:16:18;11;11;
68341;PMS7003;55668;52.310;21.066;2022-08-19T18:31:42;12;11;
68341;PMS7003;55668;52.310;21.066;2022-08-19T18:51:58;8;8;
68341;PMS7003;55668;52.310;21.066;2022-08-19T19:02:36;8;8;
68341;PMS7003;55668;52.310;21.066;2022-08-19T19:19:57;10;10;
68341;PMS7003;55668;52.310;21.066;2022-08-19T19:34:19;8;8;
68341;PMS7003;55668;52.310;21.066;2022-08-19T19:49:35;10;10;
68341;PMS7003;55668;52.310;21.066;2022-08-19T20:04:02;10;10;
68341;PMS7003;55668;52.310;21.066;2022-08-19T20:20:06;9;9;
68341;PMS7003;55668;52.310;21.066;2022-08-19T20:36:07;8;8;
68341;PMS7003;55668;52.310;21.066;2022-08-19T20:51:46;9;9;
68341;PMS7003;55668;52.310;21.066;2022-08-19T21:07:16;8;8;
68341;PMS7003;55668;52.310;21.066;2022-08-19T21:20:34;8;8;
68341;PMS7003;55668;52.310;21.066;2022-08-19T21:51:48;7;7;
68341;PMS7003;55668;52.310;21.066;2022-08-19T22:08:55;7;7;
68341;PMS7003;55668;52.310;21.066;2022-08-19T22:23:47;8;8;
68341;PMS7003;55668;52.310;21.066;2022-08-19T22:38:06;8;8;
68341;PMS7003;55668;52.310;21.066;2022-08-19T23:24:08;6;6;
68341;PMS7003;55668;52.310;21.066;2022-08-19T23:54:51;9;9;
